aviador You're here:

KCQW Decoded Metar

CHERAW in SC, USA
Report Time2018-01-22 11:55:00
UTC Time2018-01-22 11:56:55
Flight Rules vfr VFR
WindCalm
Visibility9999 m
Phenomena:N/A
Clouds:N/A
Expected CloudBase > 400 ft AGL from Temp-Dew spread
CeilingNone
Temp02°C (ISA -13)
Dew Point01°C (93% RH)
AAT0.2°C
QNH1023 hPa
Density Alt-1,532 ft
Elevation240 ft
Report Wrong Elevation
Raw Report
METAR KCQW 221155Z AUTO 00000KT 9SM CLR 02/01 A3020 RMK AO2=

Extra information for KCQW:More info

Metar Taf Metar & Taf Last 4 Metars F.Rules Stats Wind Profile Meteogram Temp Stats Airport Information Weather charts Add Link Nearby VenuesMetar ALERT Operation Metar Decoded Social comments

AIRNAV info for KCQW